Time,TemperatureF,DewpointF,PressureIn,WindDirection,WindDirectionDegrees,WindSpeedMPH,WindSpeedGustMPH,Humidity,HourlyPrecipIn,Conditions,Clouds,dailyrainin,SoftwareType,DateUTC
2013-01-15 00:00:00,28.0,18.1,30.31,East,90,0.0,0.0,66,0.00,,,0.00,WUHU216HW,2013-01-15 05:00:00,
2013-01-15 00:01:00,28.0,18.1,30.30,East,90,0.0,0.0,66,0.00,,,0.00,WUHU216HW,2013-01-15 05:01:00,
2013-01-15 00:03:00,28.0,18.1,30.30,East,90,0.0,0.0,66,0.00,,,0.00,WUHU216HW,2013-01-15 05:03:00,
2013-01-15 00:08:00,27.8,18.3,30.30,North,0,0.0,0.0,67,0.00,,,0.00,WUHU216HW,2013-01-15 05:08:00,
2013-01-15 00:13:00,27.6,18.1,30.30,North,0,0.0,0.0,67,0.00,,,0.00,WUHU216HW,2013-01-15 05:13:00,
2013-01-15 00:18:00,27.6,18.1,30.30,North,0,0.0,0.0,67,0.00,,,0.00,WUHU216HW,2013-01-15 05:18:00,
2013-01-15 00:23:00,27.5,17.9,30.29,North,0,0.0,0.0,67,0.00,,,0.00,WUHU216HW,2013-01-15 05:23:00,
2013-01-15 00:28:00,27.5,17.9,30.29,NNW,338,0.0,0.0,67,0.00,,,0.00,WUHU216HW,2013-01-15 05:28:00,
2013-01-15 00:33:00,27.5,17.9,30.29,NNW,338,0.0,0.0,67,0.00,,,0.00,WUHU216HW,2013-01-15 05:33:00,
2013-01-15 00:38:00,27.3,17.7,30.29,NNW,338,0.0,0.0,67,0.00,,,0.00,WUHU216HW,2013-01-15 05:38:00,
2013-01-15 00:44:00,27.1,17.6,30.29,NNW,338,0.0,0.0,67,0.00,,,0.00,WUHU216HW,2013-01-15 05:44:00,
2013-01-15 00:48:00,27.1,17.6,30.29,North,0,0.0,0.0,67,0.00,,,0.00,WUHU216HW,2013-01-15 05:48:00,
2013-01-15 00:53:00,26.9,17.7,30.29,NNW,338,0.0,0.0,68,0.00,,,0.00,WUHU216HW,2013-01-15 05:53:00,
2013-01-15 00:58:00,26.9,17.7,30.30,NNW,338,0.0,0.0,68,0.00,,,0.00,WUHU216HW,2013-01-15 05:58:00,
2013-01-15 01:03:00,26.9,17.7,30.30,NNE,23,0.0,0.0,68,0.00,,,0.00,WUHU216HW,2013-01-15 06:03:00,
2013-01-15 01:08:00,26.9,17.7,30.30,NNW,338,0.0,0.0,68,0.00,,,0.00,WUHU216HW,2013-01-15 06:08:00,
2013-01-15 01:13:00,26.7,17.6,30.30,North,0,0.0,0.0,68,0.00,,,0.00,WUHU216HW,2013-01-15 06:13:00,
2013-01-15 01:18:00,26.7,17.6,30.31,North,0,0.0,0.0,68,0.00,,,0.00,WUHU216HW,2013-01-15 06:18:00,
2013-01-15 01:24:00,26.6,17.4,30.31,NNW,338,0.0,0.0,68,0.00,,,0.00,WUHU216HW,2013-01-15 06:24:00,
2013-01-15 01:29:00,26.6,17.4,30.31,NNW,338,0.0,0.0,68,0.00,,,0.00,WUHU216HW,2013-01-15 06:29:00,
2013-01-15 01:34:00,26.4,17.2,30.31,NNW,338,0.0,0.0,68,0.00,,,0.00,WUHU216HW,2013-01-15 06:34:00,
2013-01-15 01:39:00,26.2,17.4,30.31,NNW,338,0.0,0.0,69,0.00,,,0.00,WUHU216HW,2013-01-15 06:39:00,
2013-01-15 01:44:00,26.2,17.4,30.31,North,0,0.0,0.0,69,0.00,,,0.00,WUHU216HW,2013-01-15 06:44:00,
2013-01-15 01:49:00,26.2,17.4,30.31,NW,315,0.0,0.0,69,0.00,,,0.00,WUHU216HW,2013-01-15 06:49:00,
2013-01-15 01:53:00,26.0,17.2,30.31,NNE,23,0.0,0.0,69,0.00,,,0.00,WUHU216HW,2013-01-15 06:53:00,
2013-01-15 01:59:00,26.0,17.2,30.32,NE,45,0.0,0.0,69,0.00,,,0.00,WUHU216HW,2013-01-15 06:59:00,
2013-01-15 02:04:00,25.8,17.0,30.32,NNE,23,0.0,0.0,69,0.00,,,0.00,WUHU216HW,2013-01-15 07:04:00,
2013-01-15 02:09:00,25.8,17.0,30.32,NNE,23,0.0,0.0,69,0.00,,,0.00,WUHU216HW,2013-01-15 07:09:00,
2013-01-15 02:14:00,25.8,17.0,30.32,NE,45,0.0,2.9,69,0.00,,,0.00,WUHU216HW,2013-01-15 07:14:00,
2013-01-15 02:19:00,25.8,17.0,30.32,NNE,23,0.0,2.9,69,0.00,,,0.00,WUHU216HW,2013-01-15 07:19:00,
2013-01-15 02:24:00,25.7,16.8,30.32,NNW,338,0.0,0.0,69,0.00,,,0.00,WUHU216HW,2013-01-15 07:24:00,
2013-01-15 02:29:00,25.8,17.4,30.32,North,0,0.0,0.0,70,0.00,,,0.00,WUHU216HW,2013-01-15 07:29:00,
2013-01-15 02:34:00,25.8,17.4,30.32,North,0,0.0,0.0,70,0.00,,,0.00,WUHU216HW,2013-01-15 07:34:00,
2013-01-15 02:39:00,25.8,17.6,30.32,NW,315,0.0,0.0,70,0.00,,,0.00,WUHU216HW,2013-01-15 07:39:00,
2013-01-15 02:44:00,25.8,17.4,30.32,NNE,23,0.0,0.0,70,0.00,,,0.00,WUHU216HW,2013-01-15 07:44:00,
2013-01-15 02:49:00,26.0,17.6,30.32,North,0,0.0,0.0,70,0.00,,,0.00,WUHU216HW,2013-01-15 07:49:00,
2013-01-15 02:54:00,25.8,17.6,30.32,North,0,0.0,0.0,70,0.00,,,0.00,WUHU216HW,2013-01-15 07:54:00,
2013-01-15 02:59:00,26.0,17.6,30.32,North,0,0.0,2.2,70,0.00,,,0.00,WUHU216HW,2013-01-15 07:59:00,
2013-01-15 03:04:00,26.0,17.6,30.32,NNE,23,0.0,2.2,70,0.00,,,0.00,WUHU216HW,2013-01-15 08:04:00,
2013-01-15 03:09:00,26.0,17.6,30.32,North,0,0.0,0.0,70,0.00,,,0.00,WUHU216HW,2013-01-15 08:09:00,
2013-01-15 03:14:00,26.0,17.6,30.32,South,180,0.0,0.0,70,0.00,,,0.00,WUHU216HW,2013-01-15 08:14:00,
2013-01-15 03:19:00,26.0,17.4,30.32,NNE,23,0.0,0.0,70,0.00,,,0.00,WUHU216HW,2013-01-15 08:19:00,
2013-01-15 03:24:00,26.0,17.6,30.32,NNE,23,0.0,0.0,70,0.00,,,0.00,WUHU216HW,2013-01-15 08:24:00,
2013-01-15 03:29:00,26.0,17.6,30.32,North,0,0.0,0.0,70,0.00,,,0.00,WUHU216HW,2013-01-15 08:29:00,
2013-01-15 03:34:00,25.8,17.4,30.31,North,0,0.0,0.0,70,0.00,,,0.00,WUHU216HW,2013-01-15 08:34:00,
2013-01-15 03:39:00,25.8,17.4,30.31,NNE,23,0.0,0.0,70,0.00,,,0.00,WUHU216HW,2013-01-15 08:39:00,
2013-01-15 03:44:00,25.8,17.4,30.31,NNE,23,0.0,0.0,70,0.00,,,0.00,WUHU216HW,2013-01-15 08:44:00,
2013-01-15 03:49:00,25.8,17.4,30.31,NNE,23,0.0,0.0,70,0.00,,,0.00,WUHU216HW,2013-01-15 08:49:00,
2013-01-15 03:54:00,25.7,17.2,30.31,NNE,23,0.0,0.0,70,0.00,,,0.00,WUHU216HW,2013-01-15 08:54:00,
2013-01-15 03:59:00,25.7,17.2,30.31,NNE,23,0.0,0.0,70,0.00,,,0.00,WUHU216HW,2013-01-15 08:59:00,
2013-01-15 04:04:00,25.7,17.2,30.31,NNE,23,0.0,0.0,70,0.00,,,0.00,WUHU216HW,2013-01-15 09:04:00,
2013-01-15 04:09:00,25.5,17.0,30.31,NNE,23,0.0,3.5,70,0.00,,,0.00,WUHU216HW,2013-01-15 09:09:00,
2013-01-15 04:14:00,25.3,16.8,30.31,North,0,0.0,3.5,70,0.00,,,0.00,WUHU216HW,2013-01-15 09:14:00,
2013-01-15 04:19:00,25.1,16.7,30.31,NNE,23,0.0,1.1,70,0.00,,,0.00,WUHU216HW,2013-01-15 09:19:00,
2013-01-15 04:24:00,25.1,16.7,30.31,North,0,0.0,1.1,70,0.00,,,0.00,WUHU216HW,2013-01-15 09:24:00,
2013-01-15 04:29:00,24.9,16.5,30.31,North,0,0.0,0.0,70,0.00,,,0.00,WUHU216HW,2013-01-15 09:29:00,
2013-01-15 04:34:00,24.9,16.5,30.31,NNE,23,0.0,0.0,70,0.00,,,0.00,WUHU216HW,2013-01-15 09:34:00,
2013-01-15 04:39:00,24.8,16.3,30.31,North,0,0.0,0.0,70,0.00,,,0.00,WUHU216HW,2013-01-15 09:39:00,
2013-01-15 04:44:00,24.6,16.1,30.31,North,0,0.0,0.0,70,0.00,,,0.00,WUHU216HW,2013-01-15 09:44:00,
2013-01-15 04:49:00,24.4,16.0,30.31,North,0,0.0,0.0,70,0.00,,,0.00,WUHU216HW,2013-01-15 09:49:00,
2013-01-15 04:54:00,24.4,16.0,30.31,NW,315,0.0,0.0,70,0.00,,,0.00,WUHU216HW,2013-01-15 09:54:00,
2013-01-15 04:59:00,24.4,16.0,30.32,NNE,23,0.0,0.0,70,0.00,,,0.00,WUHU216HW,2013-01-15 09:59:00,
2013-01-15 05:04:00,24.2,15.8,30.32,NNE,23,0.0,0.0,70,0.00,,,0.00,WUHU216HW,2013-01-15 10:04:00,
2013-01-15 05:09:00,24.2,15.8,30.32,WNW,293,0.0,0.0,70,0.00,,,0.00,WUHU216HW,2013-01-15 10:09:00,
2013-01-15 05:14:00,24.0,15.6,30.32,North,0,0.0,0.0,70,0.00,,,0.00,WUHU216HW,2013-01-15 10:14:00,
2013-01-15 05:19:00,23.9,15.5,30.32,North,0,0.0,0.0,70,0.00,,,0.00,WUHU216HW,2013-01-15 10:19:00,
2013-01-15 05:24:00,23.9,15.6,30.32,North,0,0.0,0.0,70,0.00,,,0.00,WUHU216HW,2013-01-15 10:24:00,
2013-01-15 05:29:00,23.9,15.5,30.32,NNW,338,0.0,0.0,70,0.00,,,0.00,WUHU216HW,2013-01-15 10:29:00,
2013-01-15 05:34:00,23.9,15.5,30.32,NNW,338,0.0,0.0,70,0.00,,,0.00,WUHU216HW,2013-01-15 10:34:00,
2013-01-15 05:39:00,23.7,15.3,30.33,North,0,0.0,0.0,70,0.00,,,0.00,WUHU216HW,2013-01-15 10:39:00,
2013-01-15 05:44:00,23.7,15.3,30.33,NE,45,0.0,0.0,70,0.00,,,0.00,WUHU216HW,2013-01-15 10:44:00,
2013-01-15 05:49:00,23.7,15.2,30.33,NE,45,0.0,0.0,70,0.00,,,0.00,WUHU216HW,2013-01-15 10:49:00,
2013-01-15 05:54:00,23.7,15.3,30.32,NNE,23,0.0,0.0,70,0.00,,,0.00,WUHU216HW,2013-01-15 10:54:00,
2013-01-15 05:59:00,23.5,15.2,30.32,NNE,23,0.0,0.0,70,0.00,,,0.00,WUHU216HW,2013-01-15 10:59:00,
2013-01-15 06:04:00,23.3,15.0,30.33,North,0,0.0,0.0,70,0.00,,,0.00,WUHU216HW,2013-01-15 11:04:00,
2013-01-15 06:08:00,23.5,15.2,30.33,North,0,0.0,0.0,70,0.00,,,0.00,WUHU216HW,2013-01-15 11:08:00,
2013-01-15 06:13:00,23.3,15.0,30.33,NNE,23,0.0,0.0,70,0.00,,,0.00,WUHU216HW,2013-01-15 11:13:00,
2013-01-15 06:18:00,23.1,14.8,30.34,North,0,0.0,0.0,70,0.00,,,0.00,WUHU216HW,2013-01-15 11:18:00,
2013-01-15 06:23:00,23.1,15.1,30.34,North,0,0.0,0.0,71,0.00,,,0.00,WUHU216HW,2013-01-15 11:23:00,
2013-01-15 06:28:00,23.1,15.1,30.34,North,0,0.0,0.0,71,0.00,,,0.00,WUHU216HW,2013-01-15 11:28:00,
2013-01-15 06:34:00,23.1,15.1,30.34,North,0,0.0,0.0,71,0.00,,,0.00,WUHU216HW,2013-01-15 11:34:00,
2013-01-15 06:39:00,23.1,15.1,30.34,North,0,0.0,0.0,71,0.00,,,0.00,WUHU216HW,2013-01-15 11:39:00,
2013-01-15 06:43:00,23.1,15.1,30.34,NE,45,0.0,0.0,71,0.00,,,0.00,WUHU216HW,2013-01-15 11:43:00,
2013-01-15 06:49:00,22.8,14.8,30.34,NNE,23,0.0,1.1,71,0.00,,,0.00,WUHU216HW,2013-01-15 11:49:00,
2013-01-15 06:54:00,22.8,14.8,30.34,NNW,338,0.0,1.1,71,0.00,,,0.00,WUHU216HW,2013-01-15 11:54:00,
2013-01-15 06:59:00,22.8,14.8,30.35,NNE,23,0.0,0.0,71,0.00,,,0.00,WUHU216HW,2013-01-15 11:59:00,
2013-01-15 07:04:00,22.6,14.6,30.35,NNE,23,0.0,0.0,71,0.00,,,0.00,WUHU216HW,2013-01-15 12:04:00,
2013-01-15 07:09:00,22.6,14.6,30.35,NNW,338,2.0,2.0,71,0.00,,,0.00,WUHU216HW,2013-01-15 12:09:00,
2013-01-15 07:14:00,22.6,14.6,30.35,NNE,23,0.0,2.0,71,0.00,,,0.00,WUHU216HW,2013-01-15 12:14:00,
2013-01-15 07:19:00,22.6,14.6,30.35,NNE,23,0.0,0.0,71,0.00,,,0.00,WUHU216HW,2013-01-15 12:19:00,
2013-01-15 07:24:00,22.6,14.6,30.35,NNE,23,0.0,0.0,71,0.00,,,0.00,WUHU216HW,2013-01-15 12:24:00,
2013-01-15 07:29:00,22.6,14.6,30.35,North,0,0.0,0.0,71,0.00,,,0.00,WUHU216HW,2013-01-15 12:29:00,
2013-01-15 07:34:00,22.6,14.4,30.36,North,0,0.0,0.0,71,0.00,,,0.00,WUHU216HW,2013-01-15 12:34:00,
2013-01-15 07:39:00,22.4,14.4,30.36,NNE,23,1.5,1.5,71,0.00,,,0.00,WUHU216HW,2013-01-15 12:39:00,
2013-01-15 07:44:00,22.4,14.4,30.36,NE,45,0.0,1.5,71,0.00,,,0.00,WUHU216HW,2013-01-15 12:44:00,
2013-01-15 07:49:00,22.4,14.4,30.36,North,0,0.0,0.6,71,0.00,,,0.00,WUHU216HW,2013-01-15 12:49:00,
2013-01-15 07:54:00,22.4,14.4,30.36,NNE,23,0.0,0.6,71,0.00,,,0.00,WUHU216HW,2013-01-15 12:54:00,
2013-01-15 07:59:00,22.4,14.4,30.36,North,0,0.0,0.0,71,0.00,,,0.00,WUHU216HW,2013-01-15 12:59:00,
2013-01-15 08:04:00,22.4,14.7,30.36,NNE,23,0.0,0.0,72,0.00,,,0.00,WUHU216HW,2013-01-15 13:04:00,
2013-01-15 08:09:00,22.4,14.7,30.37,North,0,0.0,0.0,72,0.00,,,0.00,WUHU216HW,2013-01-15 13:09:00,
2013-01-15 08:14:00,22.6,14.9,30.36,NNE,23,0.0,0.0,72,0.00,,,0.00,WUHU216HW,2013-01-15 13:14:00,
2013-01-15 08:19:00,22.6,14.9,30.37,NNE,23,0.0,0.0,72,0.00,,,0.00,WUHU216HW,2013-01-15 13:19:00,
2013-01-15 08:24:00,22.6,14.9,30.37,NNE,23,0.0,0.0,72,0.00,,,0.00,WUHU216HW,2013-01-15 13:24:00,
2013-01-15 08:29:00,22.8,15.1,30.37,NNE,23,0.0,1.5,72,0.00,,,0.00,WUHU216HW,2013-01-15 13:29:00,
2013-01-15 08:34:00,22.8,15.1,30.37,NNE,23,0.0,1.5,72,0.00,,,0.00,WUHU216HW,2013-01-15 13:34:00,
2013-01-15 08:39:00,23.0,15.3,30.38,NNE,23,0.0,0.0,72,0.00,,,0.00,WUHU216HW,2013-01-15 13:39:00,
2013-01-15 08:44:00,23.1,15.4,30.38,NE,45,0.0,0.0,72,0.00,,,0.00,WUHU216HW,2013-01-15 13:44:00,
2013-01-15 08:49:00,23.1,15.4,30.37,NE,45,0.0,0.0,72,0.00,,,0.00,WUHU216HW,2013-01-15 13:49:00,
2013-01-15 08:54:00,23.3,15.9,30.37,NE,45,0.0,0.0,73,0.00,,,0.00,WUHU216HW,2013-01-15 13:54:00,
2013-01-15 08:59:00,23.5,16.1,30.37,NNW,338,0.0,0.0,73,0.00,,,0.00,WUHU216HW,2013-01-15 13:59:00,
2013-01-15 09:04:00,23.7,16.3,30.37,SE,135,0.0,0.0,73,0.00,,,0.00,WUHU216HW,2013-01-15 14:04:00,
2013-01-15 09:09:00,23.9,16.4,30.37,NNE,23,0.0,0.0,73,0.00,,,0.00,WUHU216HW,2013-01-15 14:09:00,
2013-01-15 09:14:00,24.0,16.6,30.38,NNE,23,0.0,0.0,73,0.00,,,0.00,WUHU216HW,2013-01-15 14:14:00,
2013-01-15 09:19:00,24.2,16.8,30.38,NE,45,0.0,0.0,73,0.00,,,0.00,WUHU216HW,2013-01-15 14:19:00,
2013-01-15 09:24:00,24.4,16.9,30.38,NNE,23,0.0,0.0,73,0.00,,,0.00,WUHU216HW,2013-01-15 14:24:00,
2013-01-15 09:29:00,24.8,17.3,30.38,North,0,0.0,0.0,73,0.00,,,0.00,WUHU216HW,2013-01-15 14:29:00,
2013-01-15 09:34:00,24.9,17.4,30.38,NNE,23,0.0,0.0,73,0.00,,,0.00,WUHU216HW,2013-01-15 14:34:00,
2013-01-15 09:39:00,25.1,17.6,30.38,NE,45,0.0,0.0,73,0.00,,,0.00,WUHU216HW,2013-01-15 14:39:00,
2013-01-15 09:44:00,25.3,17.8,30.38,NNE,23,0.0,0.0,73,0.00,,,0.00,WUHU216HW,2013-01-15 14:44:00,
2013-01-15 09:49:00,25.5,17.9,30.38,NNE,23,0.0,0.0,73,0.00,,,0.00,WUHU216HW,2013-01-15 14:49:00,
2013-01-15 09:54:00,25.7,18.1,30.38,East,90,0.0,0.0,73,0.00,,,0.00,WUHU216HW,2013-01-15 14:54:00,
2013-01-15 09:59:00,26.0,18.5,30.38,NE,45,0.0,0.0,73,0.00,,,0.00,WUHU216HW,2013-01-15 14:59:00,
2013-01-15 10:04:00,26.2,18.6,30.38,NNE,23,0.0,0.0,73,0.00,,,0.00,WUHU216HW,2013-01-15 15:04:00,
2013-01-15 10:09:00,26.6,18.7,30.37,NNE,23,0.0,3.5,72,0.00,,,0.00,WUHU216HW,2013-01-15 15:09:00,
2013-01-15 10:14:00,26.7,18.9,30.37,NNW,338,0.0,3.5,72,0.00,,,0.00,WUHU216HW,2013-01-15 15:14:00,
2013-01-15 10:19:00,27.1,19.2,30.36,NE,45,0.0,1.1,72,0.00,,,0.00,WUHU216HW,2013-01-15 15:19:00,
2013-01-15 10:24:00,27.3,19.4,30.36,NW,315,0.0,1.1,72,0.00,,,0.00,WUHU216HW,2013-01-15 15:24:00,
2013-01-15 10:29:00,27.3,19.1,30.36,NNE,23,0.0,0.0,71,0.00,,,0.00,WUHU216HW,2013-01-15 15:29:00,
2013-01-15 10:34:00,27.5,19.3,30.36,NNE,23,0.0,0.0,71,0.00,,,0.00,WUHU216HW,2013-01-15 15:34:00,
2013-01-15 10:39:00,27.6,19.5,30.36,ESE,113,0.0,0.0,71,0.00,,,0.00,WUHU216HW,2013-01-15 15:39:00,
2013-01-15 10:44:00,28.0,19.8,30.36,ENE,68,0.0,0.0,71,0.00,,,0.00,WUHU216HW,2013-01-15 15:44:00,
2013-01-15 10:49:00,28.2,20.0,30.35,ENE,68,0.0,0.0,71,0.00,,,0.00,WUHU216HW,2013-01-15 15:49:00,
2013-01-15 10:54:00,28.5,20.4,30.35,NNE,23,0.0,0.0,71,0.00,,,0.00,WUHU216HW,2013-01-15 15:54:00,
2013-01-15 10:59:00,28.9,20.8,30.35,NNE,23,0.0,0.0,71,0.00,,,0.00,WUHU216HW,2013-01-15 15:59:00,
2013-01-15 11:04:00,29.3,20.7,30.35,ENE,68,0.0,3.1,70,0.00,,,0.00,WUHU216HW,2013-01-15 16:04:00,
2013-01-15 11:09:00,29.6,21.0,30.34,NNE,23,0.0,3.1,70,0.00,,,0.00,WUHU216HW,2013-01-15 16:09:00,
2013-01-15 11:14:00,29.6,20.7,30.34,NE,45,0.0,1.3,69,0.00,,,0.00,WUHU216HW,2013-01-15 16:14:00,
2013-01-15 11:19:00,29.8,20.8,30.34,NE,45,0.0,1.3,69,0.00,,,0.00,WUHU216HW,2013-01-15 16:19:00,
2013-01-15 11:24:00,30.0,20.6,30.34,NNE,23,0.0,0.0,68,0.00,,,0.00,WUHU216HW,2013-01-15 16:24:00,
2013-01-15 11:29:00,30.2,20.8,30.33,NE,45,0.0,0.0,68,0.00,,,0.00,WUHU216HW,2013-01-15 16:29:00,
2013-01-15 11:34:00,30.5,20.8,30.33,NE,45,0.0,2.2,67,0.00,,,0.00,WUHU216HW,2013-01-15 16:34:00,
2013-01-15 11:39:00,30.7,21.0,30.33,North,0,0.0,2.2,67,0.00,,,0.00,WUHU216HW,2013-01-15 16:39:00,
2013-01-15 11:44:00,30.9,20.8,30.32,NNW,338,0.0,0.0,66,0.00,,,0.00,WUHU216HW,2013-01-15 16:44:00,
2013-01-15 11:49:00,31.1,21.0,30.32,ENE,68,0.0,0.0,66,0.00,,,0.00,WUHU216HW,2013-01-15 16:49:00,
2013-01-15 11:54:00,31.6,21.5,30.32,NNE,23,0.0,0.0,66,0.00,,,0.00,WUHU216HW,2013-01-15 16:54:00,
2013-01-15 11:59:00,31.6,21.5,30.32,NE,45,0.0,0.0,66,0.00,,,0.00,WUHU216HW,2013-01-15 16:59:00,
2013-01-15 12:04:00,32.0,21.9,30.31,NE,45,0.0,0.0,66,0.00,,,0.00,WUHU216HW,2013-01-15 17:04:00,
2013-01-15 12:09:00,32.1,22.0,30.31,North,0,0.0,0.0,66,0.00,,,0.00,WUHU216HW,2013-01-15 17:09:00,
2013-01-15 12:14:00,32.5,22.4,30.31,NNE,23,0.0,0.0,66,0.00,,,0.00,WUHU216HW,2013-01-15 17:14:00,
2013-01-15 12:19:00,32.7,22.5,30.31,NNE,23,0.0,0.0,66,0.00,,,0.00,WUHU216HW,2013-01-15 17:19:00,
2013-01-15 12:24:00,32.9,22.3,30.31,North,0,0.0,0.0,65,0.00,,,0.00,WUHU216HW,2013-01-15 17:24:00,
2013-01-15 12:29:00,32.9,22.3,30.30,NNE,23,0.0,1.1,65,0.00,,,0.00,WUHU216HW,2013-01-15 17:29:00,
2013-01-15 12:34:00,33.2,22.3,30.29,NNE,23,0.0,1.1,64,0.00,,,0.00,WUHU216HW,2013-01-15 17:34:00,
2013-01-15 12:39:00,33.4,22.4,30.29,NE,45,0.0,0.0,64,0.00,,,0.00,WUHU216HW,2013-01-15 17:39:00,
2013-01-15 12:44:00,33.8,22.8,30.29,NE,45,0.0,0.0,64,0.00,,,0.00,WUHU216HW,2013-01-15 17:44:00,
2013-01-15 12:49:00,33.8,22.4,30.29,NNE,23,0.0,0.0,63,0.00,,,0.00,WUHU216HW,2013-01-15 17:49:00,
2013-01-15 12:53:00,33.8,22.6,30.29,East,90,0.0,1.3,63,0.00,,,0.00,WUHU216HW,2013-01-15 17:53:00,
2013-01-15 12:59:00,33.9,22.2,30.29,ENE,68,0.0,1.3,62,0.00,,,0.00,WUHU216HW,2013-01-15 17:59:00,
2013-01-15 13:04:00,34.1,22.4,30.28,NNW,338,0.0,0.0,62,0.00,,,0.00,WUHU216HW,2013-01-15 18:04:00,
2013-01-15 13:09:00,34.7,23.0,30.27,NNE,23,0.0,0.0,62,0.00,,,0.00,WUHU216HW,2013-01-15 18:09:00,
2013-01-15 13:14:00,35.2,23.5,30.27,NNE,23,0.0,0.0,62,0.00,,,0.00,WUHU216HW,2013-01-15 18:14:00,
2013-01-15 13:19:00,35.2,23.1,30.26,East,90,0.0,0.0,61,0.00,,,0.00,WUHU216HW,2013-01-15 18:19:00,
2013-01-15 13:24:00,35.2,23.1,30.26,North,0,0.0,0.0,61,0.00,,,0.00,WUHU216HW,2013-01-15 18:24:00,
2013-01-15 13:29:00,35.2,22.8,30.25,NNE,23,0.0,0.0,60,0.00,,,0.00,WUHU216HW,2013-01-15 18:29:00,
2013-01-15 13:34:00,35.0,22.6,30.25,NNE,23,0.0,0.0,60,0.00,,,0.00,WUHU216HW,2013-01-15 18:34:00,
2013-01-15 13:39:00,35.0,22.6,30.25,NE,45,0.8,0.8,60,0.00,,,0.00,WUHU216HW,2013-01-15 18:39:00,
2013-01-15 13:44:00,35.0,22.6,30.25,NNE,23,0.0,0.8,60,0.00,,,0.00,WUHU216HW,2013-01-15 18:44:00,
2013-01-15 13:49:00,34.8,22.4,30.25,NNE,23,0.0,0.0,60,0.00,,,0.00,WUHU216HW,2013-01-15 18:49:00,
2013-01-15 13:54:00,34.7,21.8,30.25,East,90,0.0,0.0,59,0.00,,,0.00,WUHU216HW,2013-01-15 18:54:00,
2013-01-15 13:59:00,34.7,21.8,30.24,North,0,0.0,0.0,59,0.00,,,0.00,WUHU216HW,2013-01-15 18:59:00,
2013-01-15 14:04:00,34.5,21.6,30.25,North,0,0.0,0.0,59,0.00,,,0.00,WUHU216HW,2013-01-15 19:04:00,
2013-01-15 14:09:00,34.3,21.0,30.24,NNW,338,0.0,0.0,58,0.00,,,0.00,WUHU216HW,2013-01-15 19:09:00,
2013-01-15 14:14:00,34.3,21.4,30.25,NE,45,0.0,0.0,59,0.00,,,0.00,WUHU216HW,2013-01-15 19:14:00,
2013-01-15 14:19:00,34.1,20.8,30.24,East,90,0.0,0.0,58,0.00,,,0.00,WUHU216HW,2013-01-15 19:19:00,
2013-01-15 14:24:00,34.1,20.8,30.25,NNE,23,0.0,0.0,58,0.00,,,0.00,WUHU216HW,2013-01-15 19:24:00,
2013-01-15 14:29:00,33.9,20.8,30.24,NE,45,0.0,0.0,58,0.00,,,0.00,WUHU216HW,2013-01-15 19:29:00,
2013-01-15 14:34:00,33.9,20.6,30.25,NE,45,0.0,0.0,58,0.00,,,0.00,WUHU216HW,2013-01-15 19:34:00,
2013-01-15 14:39:00,34.1,20.8,30.24,SSE,158,0.0,0.0,58,0.00,,,0.00,WUHU216HW,2013-01-15 19:39:00,
2013-01-15 14:44:00,33.9,20.6,30.24,North,0,0.0,0.0,58,0.00,,,0.00,WUHU216HW,2013-01-15 19:44:00,
2013-01-15 14:49:00,34.1,20.8,30.24,NE,45,0.0,0.0,58,0.00,,,0.00,WUHU216HW,2013-01-15 19:49:00,
2013-01-15 14:54:00,34.1,20.8,30.24,ESE,113,0.0,0.0,58,0.00,,,0.00,WUHU216HW,2013-01-15 19:54:00,
2013-01-15 14:59:00,34.1,20.8,30.24,North,0,0.0,0.0,58,0.00,,,0.00,WUHU216HW,2013-01-15 19:59:00,
2013-01-15 15:04:00,34.1,20.8,30.24,ESE,113,0.0,2.6,58,0.00,,,0.00,WUHU216HW,2013-01-15 20:04:00,
2013-01-15 15:09:00,34.3,21.0,30.24,NNE,23,0.0,2.6,58,0.00,,,0.00,WUHU216HW,2013-01-15 20:09:00,
2013-01-15 15:14:00,34.3,20.6,30.23,NNW,338,0.0,0.0,57,0.00,,,0.00,WUHU216HW,2013-01-15 20:14:00,
2013-01-15 15:19:00,34.3,20.6,30.23,NE,45,0.0,0.0,57,0.00,,,0.00,WUHU216HW,2013-01-15 20:19:00,
2013-01-15 15:24:00,34.3,20.6,30.23,ESE,113,0.0,0.0,57,0.00,,,0.00,WUHU216HW,2013-01-15 20:24:00,
2013-01-15 15:29:00,34.3,20.6,30.23,NNE,23,0.0,0.0,57,0.00,,,0.00,WUHU216HW,2013-01-15 20:29:00,
2013-01-15 15:34:00,34.1,20.4,30.23,NE,45,0.0,0.0,57,0.00,,,0.00,WUHU216HW,2013-01-15 20:34:00,
2013-01-15 15:39:00,34.1,20.4,30.23,NNE,23,0.0,0.0,57,0.00,,,0.00,WUHU216HW,2013-01-15 20:39:00,
2013-01-15 15:44:00,33.9,20.2,30.22,NE,45,0.0,0.0,57,0.00,,,0.00,WUHU216HW,2013-01-15 20:44:00,
2013-01-15 15:49:00,33.9,20.2,30.22,North,0,0.0,0.0,57,0.00,,,0.00,WUHU216HW,2013-01-15 20:49:00,
2013-01-15 15:54:00,33.8,19.9,30.23,ENE,68,0.0,0.0,57,0.00,,,0.00,WUHU216HW,2013-01-15 20:54:00,
2013-01-15 15:59:00,33.4,19.7,30.22,NNE,23,0.0,0.0,57,0.00,,,0.00,WUHU216HW,2013-01-15 20:59:00,
2013-01-15 16:04:00,33.4,19.7,30.21,North,0,0.0,0.0,57,0.00,,,0.00,WUHU216HW,2013-01-15 21:04:00,
2013-01-15 16:09:00,33.4,19.7,30.22,North,0,0.0,0.0,57,0.00,,,0.00,WUHU216HW,2013-01-15 21:09:00,
2013-01-15 16:14:00,33.2,19.5,30.21,NE,45,0.0,0.2,57,0.00,,,0.00,WUHU216HW,2013-01-15 21:14:00,
2013-01-15 16:19:00,33.2,19.5,30.21,NW,315,0.0,0.2,57,0.00,,,0.00,WUHU216HW,2013-01-15 21:19:00,
2013-01-15 16:24:00,32.9,19.4,30.22,North,0,0.0,0.0,57,0.00,,,0.00,WUHU216HW,2013-01-15 21:24:00,
2013-01-15 16:29:00,32.9,19.2,30.21,NNW,338,0.0,0.0,57,0.00,,,0.00,WUHU216HW,2013-01-15 21:29:00,
2013-01-15 16:34:00,32.9,19.7,30.21,NE,45,0.0,0.0,58,0.00,,,0.00,WUHU216HW,2013-01-15 21:34:00,
2013-01-15 16:39:00,32.7,19.5,30.22,East,90,0.0,0.0,58,0.00,,,0.00,WUHU216HW,2013-01-15 21:39:00,
2013-01-15 16:44:00,32.7,19.5,30.23,North,0,0.0,0.0,58,0.00,,,0.00,WUHU216HW,2013-01-15 21:44:00,
2013-01-15 16:49:00,32.7,19.5,30.22,NE,45,0.0,0.0,58,0.00,,,0.00,WUHU216HW,2013-01-15 21:49:00,
2013-01-15 16:54:00,32.5,19.3,30.22,NNW,338,4.4,4.4,58,0.00,,,0.00,WUHU216HW,2013-01-15 21:54:00,
2013-01-15 16:59:00,32.5,19.3,30.22,North,0,0.0,4.4,58,0.00,,,0.00,WUHU216HW,2013-01-15 21:59:00,
2013-01-15 17:04:00,32.5,19.3,30.24,North,0,0.0,0.0,58,0.00,,,0.00,WUHU216HW,2013-01-15 22:04:00,
2013-01-15 17:09:00,32.3,19.2,30.25,NNW,338,0.0,0.0,58,0.00,,,0.00,WUHU216HW,2013-01-15 22:09:00,
2013-01-15 17:14:00,32.3,19.2,30.25,NNW,338,0.0,0.0,58,0.00,,,0.00,WUHU216HW,2013-01-15 22:14:00,
2013-01-15 17:19:00,32.3,19.6,30.24,NE,45,0.0,0.0,59,0.00,,,0.00,WUHU216HW,2013-01-15 22:19:00,
2013-01-15 17:24:00,32.1,19.4,30.24,North,0,0.0,0.0,59,0.00,,,0.00,WUHU216HW,2013-01-15 22:24:00,
2013-01-15 17:29:00,32.1,19.4,30.24,NNW,338,0.0,0.0,59,0.00,,,0.00,WUHU216HW,2013-01-15 22:29:00,
2013-01-15 17:34:00,32.1,19.4,30.23,NNW,338,0.0,0.0,59,0.00,,,0.00,WUHU216HW,2013-01-15 22:34:00,
2013-01-15 17:39:00,32.0,19.7,30.22,NNE,23,0.0,0.0,60,0.00,,,0.00,WUHU216HW,2013-01-15 22:39:00,
2013-01-15 17:44:00,31.8,19.5,30.23,NNE,23,0.0,0.0,60,0.00,,,0.00,WUHU216HW,2013-01-15 22:44:00,
2013-01-15 17:49:00,31.8,19.5,30.24,NNW,338,0.0,0.0,60,0.00,,,0.00,WUHU216HW,2013-01-15 22:49:00,
2013-01-15 17:54:00,31.8,19.5,30.23,NNE,23,0.0,0.0,60,0.00,,,0.00,WUHU216HW,2013-01-15 22:54:00,
2013-01-15 17:59:00,31.6,19.4,30.22,NE,45,0.0,0.0,60,0.00,,,0.00,WUHU216HW,2013-01-15 22:59:00,
2013-01-15 18:04:00,31.6,19.4,30.22,NNE,23,0.0,0.0,60,0.00,,,0.00,WUHU216HW,2013-01-15 23:04:00,
2013-01-15 18:09:00,31.6,19.7,30.23,NNE,23,0.0,0.0,61,0.00,,,0.00,WUHU216HW,2013-01-15 23:09:00,
2013-01-15 18:14:00,31.4,19.5,30.22,ENE,68,0.0,0.0,61,0.00,,,0.00,WUHU216HW,2013-01-15 23:14:00,
2013-01-15 18:19:00,31.4,19.5,30.22,NNE,23,0.0,0.0,61,0.00,,,0.00,WUHU216HW,2013-01-15 23:19:00,
2013-01-15 18:24:00,31.4,19.5,30.20,NE,45,0.0,0.0,61,0.00,,,0.00,WUHU216HW,2013-01-15 23:24:00,
2013-01-15 18:29:00,31.4,19.5,30.21,NNE,23,0.0,0.0,61,0.00,,,0.00,WUHU216HW,2013-01-15 23:29:00,
2013-01-15 18:34:00,31.2,19.4,30.21,NNE,23,0.0,0.0,61,0.00,,,0.00,WUHU216HW,2013-01-15 23:34:00,
2013-01-15 18:39:00,31.2,19.4,30.20,NE,45,0.0,0.0,61,0.00,,,0.00,WUHU216HW,2013-01-15 23:39:00,
2013-01-15 18:44:00,31.2,19.4,30.19,NE,45,0.0,0.0,61,0.00,,,0.00,WUHU216HW,2013-01-15 23:44:00,
2013-01-15 18:49:00,31.2,19.4,30.19,NE,45,0.0,0.0,61,0.00,,,0.00,WUHU216HW,2013-01-15 23:49:00,
2013-01-15 18:54:00,31.4,19.9,30.20,NNE,23,0.0,0.0,62,0.00,,,0.00,WUHU216HW,2013-01-15 23:54:00,
2013-01-15 18:59:00,31.4,19.9,30.20,North,0,0.0,0.0,62,0.00,,,0.00,WUHU216HW,2013-01-15 23:59:00,
2013-01-15 19:04:00,31.2,19.7,30.20,North,0,0.0,0.0,62,0.00,,,0.00,WUHU216HW,2013-01-16 00:04:00,
2013-01-15 19:09:00,31.2,19.7,30.19,ENE,68,0.0,0.0,62,0.00,,,0.00,WUHU216HW,2013-01-16 00:09:00,
2013-01-15 19:14:00,31.2,19.7,30.19,NNE,23,0.0,0.0,62,0.00,,,0.00,WUHU216HW,2013-01-16 00:14:00,
2013-01-15 19:19:00,31.1,19.5,30.17,NE,45,4.0,4.0,62,0.00,,,0.00,WUHU216HW,2013-01-16 00:19:00,
2013-01-15 19:24:00,31.1,19.5,30.17,NNE,23,0.0,4.0,62,0.00,,,0.00,WUHU216HW,2013-01-16 00:24:00,
2013-01-15 19:29:00,31.2,19.7,30.17,NE,45,0.0,0.0,62,0.00,,,0.00,WUHU216HW,2013-01-16 00:29:00,
2013-01-15 19:34:00,31.2,19.7,30.17,NE,45,0.0,0.0,62,0.00,,,0.00,WUHU216HW,2013-01-16 00:34:00,
2013-01-15 19:39:00,31.2,19.7,30.17,NNE,23,0.0,1.7,62,0.00,,,0.00,WUHU216HW,2013-01-16 00:39:00,
2013-01-15 19:44:00,31.2,19.7,30.17,NNE,23,0.0,1.7,62,0.00,,,0.00,WUHU216HW,2013-01-16 00:44:00,
2013-01-15 19:49:00,31.2,19.7,30.17,North,0,0.0,0.0,62,0.00,,,0.00,WUHU216HW,2013-01-16 00:49:00,
2013-01-15 19:54:00,31.2,19.7,30.18,North,0,0.0,0.0,62,0.00,,,0.00,WUHU216HW,2013-01-16 00:54:00,
2013-01-15 19:59:00,31.2,20.1,30.17,NE,45,0.0,0.0,63,0.00,,,0.00,WUHU216HW,2013-01-16 00:59:00,
2013-01-15 20:04:00,31.2,19.7,30.18,North,0,0.0,0.0,62,0.00,,,0.00,WUHU216HW,2013-01-16 01:04:00,
2013-01-15 20:09:00,31.2,19.7,30.18,NNE,23,0.0,0.0,62,0.00,,,0.00,WUHU216HW,2013-01-16 01:09:00,
2013-01-15 20:14:00,31.2,19.7,30.18,NNW,338,0.0,0.0,62,0.00,,,0.00,WUHU216HW,2013-01-16 01:14:00,
2013-01-15 20:19:00,31.2,20.1,30.17,South,180,0.0,0.0,63,0.00,,,0.00,WUHU216HW,2013-01-16 01:19:00,
2013-01-15 20:24:00,31.2,20.1,30.17,SSE,158,0.0,0.0,63,0.00,,,0.00,WUHU216HW,2013-01-16 01:24:00,
2013-01-15 20:29:00,31.2,20.1,30.17,NE,45,0.0,0.0,63,0.00,,,0.00,WUHU216HW,2013-01-16 01:29:00,
2013-01-15 20:34:00,31.4,20.3,30.17,ENE,68,0.0,0.0,63,0.00,,,0.00,WUHU216HW,2013-01-16 01:34:00,
2013-01-15 20:39:00,31.4,20.3,30.17,ENE,68,0.0,0.0,63,0.00,,,0.00,WUHU216HW,2013-01-16 01:39:00,
2013-01-15 20:44:00,31.4,20.3,30.16,NNE,23,0.0,0.0,63,0.00,,,0.00,WUHU216HW,2013-01-16 01:44:00,
2013-01-15 20:49:00,31.4,20.3,30.16,NNE,23,0.0,0.0,63,0.00,,,0.00,WUHU216HW,2013-01-16 01:49:00,
2013-01-15 20:54:00,31.4,20.3,30.16,NNE,23,0.0,0.0,63,0.00,,,0.00,WUHU216HW,2013-01-16 01:54:00,
2013-01-15 20:59:00,31.4,20.3,30.16,NE,45,0.0,0.0,63,0.00,,,0.00,WUHU216HW,2013-01-16 01:59:00,
2013-01-15 21:04:00,31.4,20.3,30.15,NE,45,0.0,0.0,63,0.00,,,0.00,WUHU216HW,2013-01-16 02:04:00,
2013-01-15 21:09:00,31.4,20.6,30.15,NE,45,0.0,0.0,64,0.00,,,0.00,WUHU216HW,2013-01-16 02:09:00,
2013-01-15 21:14:00,31.4,20.6,30.14,NE,45,0.0,0.0,64,0.00,,,0.00,WUHU216HW,2013-01-16 02:14:00,
2013-01-15 21:19:00,31.4,20.6,30.14,East,90,0.0,0.0,64,0.00,,,0.00,WUHU216HW,2013-01-16 02:19:00,
2013-01-15 21:24:00,31.2,20.4,30.13,ESE,113,0.0,0.0,64,0.00,,,0.00,WUHU216HW,2013-01-16 02:24:00,
2013-01-15 21:29:00,31.2,20.4,30.14,ENE,68,0.0,0.0,64,0.00,,,0.00,WUHU216HW,2013-01-16 02:29:00,
2013-01-15 21:34:00,31.2,20.4,30.13,East,90,0.0,0.0,64,0.00,,,0.00,WUHU216HW,2013-01-16 02:34:00,
2013-01-15 21:39:00,31.2,20.4,30.13,ENE,68,0.0,0.0,64,0.00,,,0.00,WUHU216HW,2013-01-16 02:39:00,
2013-01-15 21:44:00,31.1,20.6,30.13,NE,45,0.0,0.0,65,0.00,,,0.00,WUHU216HW,2013-01-16 02:44:00,
2013-01-15 21:49:00,31.2,20.8,30.13,NE,45,0.0,0.0,65,0.00,,,0.00,WUHU216HW,2013-01-16 02:49:00,
2013-01-15 21:54:00,31.1,20.6,30.12,NNE,23,0.0,0.0,65,0.00,,,0.00,WUHU216HW,2013-01-16 02:54:00,
2013-01-15 21:59:00,31.1,20.6,30.12,NNE,23,0.0,0.0,65,0.00,,,0.00,WUHU216HW,2013-01-16 02:59:00,
2013-01-15 22:04:00,30.9,20.4,30.13,North,0,0.0,0.0,65,0.00,,,0.00,WUHU216HW,2013-01-16 03:04:00,
2013-01-15 22:09:00,30.9,20.4,30.12,NE,45,0.8,0.8,65,0.00,,,0.00,WUHU216HW,2013-01-16 03:09:00,
2013-01-15 22:14:00,30.9,20.8,30.11,NE,45,0.0,0.8,66,0.00,,,0.00,WUHU216HW,2013-01-16 03:14:00,
2013-01-15 22:19:00,30.7,20.6,30.11,ENE,68,0.0,0.0,66,0.00,,,0.00,WUHU216HW,2013-01-16 03:19:00,
2013-01-15 22:24:00,30.7,20.6,30.10,North,0,0.0,0.0,66,0.00,,,0.00,WUHU216HW,2013-01-16 03:24:00,
2013-01-15 22:29:00,30.7,20.8,30.10,ESE,113,0.0,0.0,66,0.00,,,0.00,WUHU216HW,2013-01-16 03:29:00,
2013-01-15 22:34:00,30.7,20.6,30.10,East,90,0.0,0.0,66,0.00,,,0.00,WUHU216HW,2013-01-16 03:34:00,
2013-01-15 22:39:00,30.9,20.8,30.10,North,0,0.0,0.0,66,0.00,,,0.00,WUHU216HW,2013-01-16 03:39:00,
2013-01-15 22:44:00,30.7,21.0,30.10,North,0,0.0,0.0,67,0.00,,,0.00,WUHU216HW,2013-01-16 03:44:00,
2013-01-15 22:49:00,30.7,21.0,30.09,NE,45,0.0,0.0,67,0.00,,,0.00,WUHU216HW,2013-01-16 03:49:00,
2013-01-15 22:54:00,30.5,20.8,30.09,West,270,0.0,0.0,67,0.00,,,0.00,WUHU216HW,2013-01-16 03:54:00,
2013-01-15 22:59:00,30.5,20.8,30.09,NE,45,0.0,0.0,67,0.00,,,0.00,WUHU216HW,2013-01-16 03:59:00,
2013-01-15 23:04:00,30.5,20.8,30.08,NE,45,0.0,0.0,67,0.00,,,0.00,WUHU216HW,2013-01-16 04:04:00,
2013-01-15 23:09:00,30.7,21.0,30.08,NW,315,0.0,0.0,67,0.00,,,0.00,WUHU216HW,2013-01-16 04:09:00,
2013-01-15 23:14:00,30.5,20.8,30.08,NNW,338,0.0,0.0,67,0.00,,,0.00,WUHU216HW,2013-01-16 04:14:00,
2013-01-15 23:19:00,30.5,20.8,30.07,NE,45,0.0,0.0,67,0.00,,,0.00,WUHU216HW,2013-01-16 04:19:00,
2013-01-15 23:24:00,30.5,21.2,30.07,NE,45,0.0,0.0,68,0.00,,,0.00,WUHU216HW,2013-01-16 04:24:00,
2013-01-15 23:28:00,30.5,21.2,30.07,ENE,68,0.0,0.0,68,0.00,,,0.00,WUHU216HW,2013-01-16 04:28:00,
2013-01-15 23:33:00,30.7,21.3,30.07,NE,45,0.0,0.0,68,0.00,,,0.00,WUHU216HW,2013-01-16 04:33:00,
2013-01-15 23:38:00,30.9,21.5,30.07,ENE,68,0.0,0.0,68,0.00,,,0.00,WUHU216HW,2013-01-16 04:38:00,
2013-01-15 23:43:00,30.5,21.2,30.08,NE,45,0.0,0.0,68,0.00,,,0.00,WUHU216HW,2013-01-16 04:43:00,
2013-01-15 23:48:00,30.5,21.2,30.08,NNE,23,0.0,0.0,68,0.00,,,0.00,WUHU216HW,2013-01-16 04:48:00,
2013-01-15 23:53:00,30.5,21.2,30.08,ENE,68,0.0,0.0,68,0.00,,,0.00,WUHU216HW,2013-01-16 04:53:00,
2013-01-15 23:58:00,30.5,21.5,30.08,ENE,68,0.0,0.0,69,0.00,,,0.00,WUHU216HW,2013-01-16 04:58:00,